createdAt,value
2024-01-31T00:01:43.852Z,8.60
2024-01-31T00:04:12.735Z,8.60
2024-01-31T00:06:43.351Z,8.60
2024-01-31T00:09:11.348Z,8.60
2024-01-31T00:11:40.034Z,8.70
2024-01-31T00:14:09.406Z,8.80
2024-01-31T00:16:37.478Z,8.80
2024-01-31T00:19:06.104Z,8.90
2024-01-31T00:21:34.690Z,8.80
2024-01-31T00:24:04.091Z,8.90
2024-01-31T00:26:32.371Z,8.80
2024-01-31T00:29:01.406Z,8.80
2024-01-31T00:31:29.499Z,8.70
2024-01-31T00:33:57.584Z,8.70
2024-01-31T00:36:26.157Z,8.70
2024-01-31T00:38:54.349Z,8.70
2024-01-31T00:41:23.784Z,8.70
2024-01-31T00:43:52.282Z,8.70
2024-01-31T00:46:20.931Z,8.70
2024-01-31T00:48:50.129Z,8.70
2024-01-31T00:51:18.167Z,8.70
2024-01-31T00:53:46.233Z,8.70
2024-01-31T00:56:14.573Z,8.70
2024-01-31T00:58:44.037Z,8.70
2024-01-31T01:01:12.153Z,8.70
2024-01-31T01:03:40.332Z,8.70
2024-01-31T01:06:09.139Z,8.70
2024-01-31T01:08:37.822Z,8.80
2024-01-31T01:11:06.450Z,8.80
2024-01-31T01:13:35.014Z,8.90
2024-01-31T01:16:04.768Z,8.80
2024-01-31T01:18:33.304Z,8.90
2024-01-31T01:21:01.328Z,8.80
2024-01-31T01:23:29.774Z,8.70
2024-01-31T01:25:57.804Z,8.80
2024-01-31T01:28:26.036Z,8.90
2024-01-31T01:30:54.560Z,8.90
2024-01-31T01:33:24.480Z,8.90
2024-01-31T01:35:53.339Z,8.80
2024-01-31T01:38:21.331Z,8.90
2024-01-31T01:40:50.155Z,8.80
2024-01-31T01:43:19.217Z,8.80
2024-01-31T01:45:48.040Z,8.90
2024-01-31T01:48:17.861Z,8.80
2024-01-31T01:50:48.521Z,8.90
2024-01-31T01:53:16.981Z,8.90
2024-01-31T01:55:46.468Z,8.80
2024-01-31T01:58:14.903Z,8.80
2024-01-31T02:00:45.426Z,8.80
2024-01-31T02:03:14.132Z,8.80
2024-01-31T02:05:43.199Z,8.90
2024-01-31T02:08:13.507Z,8.90
2024-01-31T02:10:41.822Z,8.90
2024-01-31T02:13:09.994Z,8.80
2024-01-31T02:15:38.529Z,8.80
2024-01-31T02:18:07.235Z,8.80
2024-01-31T02:20:37.593Z,8.80
2024-01-31T02:23:06.964Z,8.70
2024-01-31T02:25:35.506Z,8.70
2024-01-31T02:28:03.593Z,8.80
2024-01-31T02:30:31.216Z,8.80
2024-01-31T02:32:59.683Z,8.90
2024-01-31T02:35:27.860Z,8.90
2024-01-31T02:37:59.317Z,8.90
2024-01-31T02:40:30.217Z,8.80
2024-01-31T02:42:59.110Z,8.80
2024-01-31T02:45:28.665Z,8.90
2024-01-31T02:47:57.460Z,8.90
2024-01-31T02:50:26.655Z,8.80
2024-01-31T02:52:55.789Z,8.80
2024-01-31T02:55:23.924Z,8.80
2024-01-31T02:57:53.789Z,8.80
2024-01-31T03:00:22.339Z,8.90
2024-01-31T03:02:50.355Z,8.90
2024-01-31T03:05:18.994Z,8.90
2024-01-31T03:07:47.246Z,8.80
2024-01-31T03:10:16.561Z,8.90
2024-01-31T03:12:44.651Z,8.80
2024-01-31T03:15:14.651Z,8.80
2024-01-31T03:17:42.753Z,8.80
2024-01-31T03:20:13.520Z,8.80
2024-01-31T03:22:41.648Z,8.80
2024-01-31T03:25:10.551Z,8.80
2024-01-31T03:27:39.311Z,8.80
2024-01-31T03:30:10.590Z,8.90
2024-01-31T03:32:40.270Z,8.90
2024-01-31T03:35:09.842Z,8.90
2024-01-31T03:37:38.683Z,8.90
2024-01-31T03:40:07.847Z,8.90
2024-01-31T03:42:36.483Z,8.90
2024-01-31T03:45:05.547Z,8.90
2024-01-31T03:47:35.401Z,8.90
2024-01-31T03:50:06.934Z,8.90
2024-01-31T03:52:37.592Z,8.80
2024-01-31T03:55:07.554Z,8.80
2024-01-31T03:57:35.694Z,8.80
2024-01-31T04:00:07.677Z,8.80
2024-01-31T04:02:36.217Z,8.80
2024-01-31T04:05:06.318Z,8.80
2024-01-31T04:07:35.304Z,8.70
2024-01-31T04:10:04.781Z,8.80
2024-01-31T04:12:34.075Z,8.80
2024-01-31T04:15:02.178Z,8.90
2024-01-31T04:17:30.237Z,8.80
2024-01-31T04:19:58.868Z,8.80
2024-01-31T04:22:28.512Z,8.80
2024-01-31T04:24:57.075Z,8.80
2024-01-31T04:27:25.100Z,8.80
2024-01-31T04:29:53.621Z,8.80
2024-01-31T04:32:21.672Z,8.80
2024-01-31T04:34:50.387Z,8.80
2024-01-31T04:37:18.640Z,8.70
2024-01-31T04:39:52.251Z,8.80
2024-01-31T04:42:20.518Z,8.80
2024-01-31T04:44:49.048Z,8.70
2024-01-31T04:47:18.101Z,8.80
2024-01-31T04:49:46.967Z,8.80
2024-01-31T04:52:15.218Z,8.70
2024-01-31T04:54:43.243Z,8.70
2024-01-31T04:57:13.111Z,8.70
2024-01-31T04:59:41.617Z,8.70
2024-01-31T05:02:10.764Z,8.70
2024-01-31T05:04:39.643Z,8.70
2024-01-31T05:07:08.821Z,8.60
2024-01-31T05:09:36.952Z,8.60
2024-01-31T05:12:05.597Z,8.60
2024-01-31T05:14:36.228Z,8.60
2024-01-31T05:17:05.073Z,8.60
2024-01-31T05:19:33.303Z,8.60
2024-01-31T05:22:01.998Z,8.60
2024-01-31T05:24:30.538Z,8.60
2024-01-31T05:27:04.459Z,8.60
2024-01-31T05:29:33.197Z,8.60
2024-01-31T05:32:02.523Z,8.60
2024-01-31T05:34:30.677Z,8.60
2024-01-31T05:36:59.291Z,8.60
2024-01-31T05:39:27.902Z,8.60
2024-01-31T05:41:56.415Z,8.60
2024-01-31T05:44:24.424Z,8.70
2024-01-31T05:46:52.448Z,8.80
2024-01-31T05:49:22.503Z,8.70
2024-01-31T05:51:52.857Z,8.70
2024-01-31T05:54:20.978Z,8.70
2024-01-31T05:56:54.924Z,8.70
2024-01-31T05:59:26.594Z,8.80
2024-01-31T06:01:55.020Z,8.90
2024-01-31T06:04:24.584Z,8.90
2024-01-31T06:06:52.905Z,8.90
2024-01-31T06:09:21.464Z,8.90
2024-01-31T06:11:50.177Z,8.80
2024-01-31T06:14:18.764Z,8.80
2024-01-31T06:16:47.189Z,8.90
2024-01-31T06:19:15.737Z,8.90
2024-01-31T06:21:45.120Z,8.90
2024-01-31T06:24:13.158Z,8.90
2024-01-31T06:26:42.457Z,8.90
2024-01-31T06:29:18.379Z,8.90
2024-01-31T06:31:49.293Z,8.90
2024-01-31T06:34:18.386Z,8.90
2024-01-31T06:36:48.030Z,9.00
2024-01-31T06:39:16.547Z,8.90
2024-01-31T06:41:44.561Z,8.90
2024-01-31T06:44:12.610Z,8.90
2024-01-31T06:46:41.183Z,8.90
2024-01-31T06:49:09.508Z,8.80
2024-01-31T06:51:37.620Z,8.70
2024-01-31T06:54:07.570Z,8.70
2024-01-31T06:56:36.760Z,8.70
2024-01-31T06:59:04.990Z,8.70
2024-01-31T07:01:33.633Z,8.60
2024-01-31T07:04:01.918Z,8.60
2024-01-31T07:06:30.147Z,8.50
2024-01-31T07:08:58.702Z,8.50
2024-01-31T07:11:28.141Z,8.50
2024-01-31T07:13:56.169Z,8.50
2024-01-31T07:16:25.290Z,8.50
2024-01-31T07:18:53.465Z,8.50
2024-01-31T07:21:27.166Z,8.50
2024-01-31T07:23:55.647Z,8.50
2024-01-31T07:26:24.630Z,8.50
2024-01-31T07:28:54.804Z,8.70
2024-01-31T07:31:22.851Z,8.70
2024-01-31T07:33:51.064Z,8.60
2024-01-31T07:36:19.675Z,8.70
2024-01-31T07:38:48.586Z,8.80
2024-01-31T07:41:16.730Z,8.80
2024-01-31T07:43:45.487Z,8.80
2024-01-31T07:46:14.891Z,8.80
2024-01-31T07:48:43.441Z,8.80
2024-01-31T07:51:12.025Z,8.90
2024-01-31T07:53:40.197Z,8.90
2024-01-31T07:56:08.616Z,8.90
2024-01-31T07:58:37.266Z,9.00
2024-01-31T08:01:06.314Z,9.00
2024-01-31T08:03:40.446Z,8.90
2024-01-31T08:06:08.640Z,8.90
2024-01-31T08:08:38.958Z,8.80
2024-01-31T08:11:07.832Z,8.80
2024-01-31T08:13:35.934Z,8.80
2024-01-31T08:16:04.697Z,8.80
2024-01-31T08:18:32.762Z,8.80
2024-01-31T08:21:02.112Z,8.80
2024-01-31T08:23:30.615Z,8.70
2024-01-31T08:25:58.729Z,8.80
2024-01-31T08:28:27.355Z,8.80
2024-01-31T08:30:55.378Z,8.80
2024-01-31T08:33:23.477Z,8.80
2024-01-31T08:35:52.022Z,8.80
2024-01-31T08:38:21.370Z,8.80
2024-01-31T08:40:49.434Z,8.80
2024-01-31T08:43:17.960Z,8.80
2024-01-31T08:45:46.086Z,8.80
2024-01-31T08:48:14.242Z,8.90
2024-01-31T08:50:42.853Z,8.90
2024-01-31T08:53:10.903Z,9.00
2024-01-31T08:55:41.156Z,9.00
2024-01-31T08:58:09.833Z,9.10
2024-01-31T09:00:37.958Z,9.20
2024-01-31T09:03:06.320Z,9.40
2024-01-31T09:05:35.520Z,9.50
2024-01-31T09:08:04.054Z,9.50
2024-01-31T09:10:32.147Z,9.40
2024-01-31T09:13:02.013Z,9.50
2024-01-31T09:15:30.081Z,9.50
2024-01-31T09:17:58.183Z,9.60
2024-01-31T09:20:26.738Z,9.60
2024-01-31T09:22:54.866Z,9.40
2024-01-31T09:25:22.948Z,9.60
2024-01-31T09:27:51.421Z,9.70
2024-01-31T09:30:21.060Z,9.80
2024-01-31T09:32:49.106Z,9.90
2024-01-31T09:35:17.811Z,10.20
2024-01-31T09:37:45.970Z,10.30
2024-01-31T09:40:17.508Z,10.30
2024-01-31T09:42:45.862Z,10.30
2024-01-31T09:45:14.142Z,10.20
2024-01-31T09:47:47.014Z,10.40
2024-01-31T09:50:15.289Z,10.40
2024-01-31T09:52:44.269Z,10.60
2024-01-31T09:55:13.799Z,10.70
2024-01-31T09:57:43.760Z,10.70
2024-01-31T10:00:12.169Z,10.70
2024-01-31T10:02:42.158Z,10.50
2024-01-31T10:05:11.850Z,10.30
2024-01-31T10:07:41.961Z,10.50
2024-01-31T10:10:11.763Z,10.50
2024-01-31T10:12:40.795Z,10.40
2024-01-31T10:15:10.482Z,10.50
2024-01-31T10:17:39.610Z,10.70
2024-01-31T10:20:13.149Z,10.70
2024-01-31T10:22:43.776Z,10.80
2024-01-31T10:25:17.230Z,10.80
2024-01-31T10:27:47.027Z,10.80
2024-01-31T10:30:16.811Z,10.80
2024-01-31T10:32:47.036Z,10.90
2024-01-31T10:37:56.221Z,11.10
2024-01-31T10:40:30.913Z,11.20
2024-01-31T10:43:00.287Z,11.30
2024-01-31T10:45:29.132Z,11.30
2024-01-31T10:47:57.933Z,11.10
2024-01-31T10:50:26.202Z,11.10
2024-01-31T10:52:57.181Z,11.10
2024-01-31T10:55:27.255Z,11.30
2024-01-31T10:57:56.839Z,11.20
2024-01-31T11:00:29.709Z,11.30
2024-01-31T11:02:59.546Z,11.00
2024-01-31T11:05:29.209Z,10.80
2024-01-31T11:08:01.326Z,11.10
2024-01-31T11:10:29.752Z,11.10
2024-01-31T11:13:03.510Z,11.00
2024-01-31T11:15:32.642Z,11.10
2024-01-31T11:18:10.151Z,11.10
2024-01-31T11:20:40.624Z,11.20
2024-01-31T11:23:15.728Z,11.40
2024-01-31T11:25:44.098Z,11.50
2024-01-31T11:28:13.604Z,11.60
2024-01-31T11:30:42.546Z,11.80
2024-01-31T11:33:10.934Z,11.80
2024-01-31T11:35:39.545Z,11.90
2024-01-31T11:38:10.105Z,12.00
2024-01-31T11:40:38.572Z,12.10
2024-01-31T11:43:07.058Z,12.10
2024-01-31T11:45:35.674Z,12.00
2024-01-31T11:48:04.541Z,12.00
2024-01-31T11:50:32.922Z,12.10
2024-01-31T11:53:01.867Z,12.30
2024-01-31T11:55:32.208Z,12.30
2024-01-31T11:58:00.267Z,12.40
2024-01-31T12:00:28.048Z,12.30
2024-01-31T12:02:56.739Z,12.10
2024-01-31T12:05:25.114Z,12.00
2024-01-31T12:07:58.367Z,12.00
2024-01-31T12:10:27.743Z,12.20
2024-01-31T12:12:59.687Z,12.00
2024-01-31T12:15:28.620Z,11.90
2024-01-31T12:17:56.826Z,12.00
2024-01-31T12:20:27.521Z,12.00
2024-01-31T12:22:55.678Z,12.10
2024-01-31T12:25:25.348Z,12.10
2024-01-31T12:27:54.073Z,12.20
2024-01-31T12:30:23.611Z,12.30
2024-01-31T12:32:51.800Z,12.20
2024-01-31T12:35:20.573Z,12.40
2024-01-31T12:37:49.474Z,12.60
2024-01-31T12:40:17.606Z,12.70
2024-01-31T12:42:46.528Z,12.60
2024-01-31T12:45:15.425Z,12.50
2024-01-31T12:47:46.903Z,12.50
2024-01-31T12:50:17.217Z,12.50
2024-01-31T12:52:45.873Z,12.50
2024-01-31T12:55:14.526Z,12.50
2024-01-31T12:57:42.964Z,12.60
2024-01-31T13:00:11.750Z,12.60
2024-01-31T13:02:39.892Z,12.70
2024-01-31T13:05:10.693Z,12.80
2024-01-31T13:07:39.072Z,12.70
2024-01-31T13:10:09.918Z,12.80
2024-01-31T13:12:38.471Z,12.60
2024-01-31T13:15:07.612Z,12.50
2024-01-31T13:17:38.702Z,12.30
2024-01-31T13:20:11.423Z,12.30
2024-01-31T13:22:39.567Z,12.30
2024-01-31T13:25:08.825Z,12.30
2024-01-31T13:27:37.319Z,12.20
2024-01-31T13:30:08.777Z,12.40
2024-01-31T13:32:41.574Z,12.50
2024-01-31T13:35:11.484Z,12.30
2024-01-31T13:37:39.965Z,12.40
2024-01-31T13:40:11.221Z,12.40
2024-01-31T13:42:40.156Z,12.30
2024-01-31T13:45:09.641Z,12.40
2024-01-31T13:47:38.457Z,12.30
2024-01-31T13:50:08.268Z,12.30
2024-01-31T13:52:38.753Z,12.40
2024-01-31T13:55:08.476Z,12.50
2024-01-31T13:57:36.997Z,12.30
2024-01-31T14:00:07.694Z,12.00
2024-01-31T14:02:37.596Z,12.00
2024-01-31T14:05:06.098Z,11.90
2024-01-31T14:07:34.658Z,11.80
2024-01-31T14:10:04.826Z,11.60
2024-01-31T14:12:32.939Z,11.50
2024-01-31T14:15:01.661Z,11.50
2024-01-31T14:17:30.400Z,11.50
2024-01-31T14:19:58.534Z,11.50
2024-01-31T14:22:35.716Z,11.30
2024-01-31T14:25:16.736Z,11.20
2024-01-31T14:27:44.857Z,11.20
2024-01-31T14:30:13.628Z,11.20
2024-01-31T14:32:42.054Z,11.10
2024-01-31T14:35:10.501Z,11.00
2024-01-31T14:37:38.592Z,10.80
2024-01-31T14:40:08.380Z,10.80
2024-01-31T14:42:38.193Z,10.90
2024-01-31T14:45:10.466Z,11.00
2024-01-31T14:47:38.732Z,11.10
2024-01-31T14:50:07.883Z,11.10
2024-01-31T14:52:36.285Z,11.20
2024-01-31T14:55:05.211Z,11.10
2024-01-31T14:57:33.282Z,11.00
2024-01-31T15:00:04.092Z,10.90
2024-01-31T15:02:32.352Z,10.80
2024-01-31T15:05:00.529Z,10.70
2024-01-31T15:07:30.779Z,10.70
2024-01-31T15:10:00.915Z,10.70
2024-01-31T15:12:29.212Z,10.60
2024-01-31T15:14:57.370Z,10.60
2024-01-31T15:17:26.840Z,10.70
2024-01-31T15:19:55.291Z,10.70
2024-01-31T15:22:23.500Z,10.70
2024-01-31T15:24:51.485Z,10.60
2024-01-31T15:27:20.142Z,10.60
2024-01-31T15:29:48.320Z,10.60
2024-01-31T15:32:16.748Z,10.40
2024-01-31T15:34:46.540Z,10.40
2024-01-31T15:37:14.604Z,10.40
2024-01-31T15:39:42.657Z,10.30
2024-01-31T15:42:10.904Z,10.10
2024-01-31T15:44:39.384Z,10.00
2024-01-31T15:47:12.134Z,9.90
2024-01-31T15:49:40.286Z,9.80
2024-01-31T15:52:10.013Z,9.90
2024-01-31T15:54:38.439Z,10.00
2024-01-31T15:57:06.760Z,9.90
2024-01-31T15:59:35.459Z,9.80
2024-01-31T16:02:03.934Z,9.70
2024-01-31T16:04:32.493Z,9.50
2024-01-31T16:07:02.873Z,9.20
2024-01-31T16:09:32.763Z,8.90
2024-01-31T16:12:01.229Z,8.80
2024-01-31T16:14:29.818Z,8.60
2024-01-31T16:16:58.210Z,8.60
2024-01-31T16:19:26.466Z,8.60
2024-01-31T16:21:54.579Z,8.40
2024-01-31T16:24:23.040Z,8.50
2024-01-31T16:26:52.443Z,8.50
2024-01-31T16:29:20.503Z,8.70
2024-01-31T16:31:48.960Z,8.90
2024-01-31T16:34:21.966Z,9.00
2024-01-31T16:36:52.733Z,9.20
2024-01-31T16:39:20.920Z,9.20
2024-01-31T16:41:50.009Z,9.20
2024-01-31T16:44:19.670Z,9.30
2024-01-31T16:46:47.758Z,9.30
2024-01-31T16:49:15.878Z,9.20
2024-01-31T16:51:46.586Z,9.20
2024-01-31T16:54:15.116Z,9.20
2024-01-31T16:56:43.438Z,9.10
2024-01-31T16:59:11.631Z,9.00
2024-01-31T17:01:44.788Z,9.00
2024-01-31T17:04:13.207Z,8.90
2024-01-31T17:06:41.307Z,8.90
2024-01-31T17:09:09.489Z,8.80
2024-01-31T17:11:37.949Z,8.80
2024-01-31T17:14:06.165Z,8.80
2024-01-31T17:16:34.256Z,8.80
2024-01-31T17:19:05.781Z,8.80
2024-01-31T17:21:33.877Z,8.80
2024-01-31T17:24:02.050Z,8.80
2024-01-31T17:26:30.523Z,8.80
2024-01-31T17:29:00.337Z,8.70
2024-01-31T17:31:28.430Z,8.70
2024-01-31T17:33:57.955Z,8.70
2024-01-31T17:36:27.608Z,8.60
2024-01-31T17:38:56.018Z,8.60
2024-01-31T17:41:24.375Z,8.70
2024-01-31T17:43:52.479Z,8.60
2024-01-31T17:46:21.873Z,8.40
2024-01-31T17:48:50.486Z,8.40
2024-01-31T17:51:18.901Z,8.50
2024-01-31T17:53:48.573Z,8.50
2024-01-31T17:56:19.402Z,8.50
2024-01-31T17:58:47.916Z,8.50
2024-01-31T18:01:16.282Z,8.70
2024-01-31T18:03:44.515Z,8.80
2024-01-31T18:06:13.564Z,8.80
2024-01-31T18:08:41.748Z,8.70
2024-01-31T18:11:12.019Z,8.60
2024-01-31T18:13:40.915Z,8.60
2024-01-31T18:16:09.465Z,8.40
2024-01-31T18:18:37.595Z,8.40
2024-01-31T18:21:06.510Z,8.40
2024-01-31T18:23:34.847Z,8.40
2024-01-31T18:26:03.131Z,8.40
2024-01-31T18:28:32.871Z,8.30
2024-01-31T18:31:00.895Z,8.20
2024-01-31T18:33:29.101Z,8.30
2024-01-31T18:35:58.106Z,8.10
2024-01-31T18:38:26.452Z,8.00
2024-01-31T18:40:56.299Z,7.90
2024-01-31T18:43:25.136Z,7.80
2024-01-31T18:45:54.504Z,7.50
2024-01-31T18:48:22.840Z,7.50
2024-01-31T18:50:51.319Z,7.60
2024-01-31T18:53:19.431Z,7.80
2024-01-31T18:55:47.499Z,7.90
2024-01-31T18:58:16.004Z,7.70
2024-01-31T19:00:44.152Z,7.40
2024-01-31T19:03:14.602Z,7.30
2024-01-31T19:05:43.092Z,7.40
2024-01-31T19:08:11.143Z,7.40
2024-01-31T19:10:39.557Z,7.30
2024-01-31T19:13:07.911Z,7.10
2024-01-31T19:15:38.241Z,7.00
2024-01-31T19:18:09.287Z,7.10
2024-01-31T19:20:38.998Z,7.30
2024-01-31T19:23:07.338Z,7.40
2024-01-31T19:25:35.662Z,7.80
2024-01-31T19:28:04.208Z,7.80
2024-01-31T19:30:32.392Z,8.00
2024-01-31T19:33:00.988Z,8.20
2024-01-31T19:35:29.324Z,8.20
2024-01-31T19:37:58.736Z,8.40
2024-01-31T19:40:27.076Z,8.40
2024-01-31T19:42:55.163Z,8.30
2024-01-31T19:45:23.393Z,8.40
2024-01-31T19:47:51.789Z,8.50
2024-01-31T19:50:21.010Z,8.50
2024-01-31T19:52:49.110Z,8.50
2024-01-31T19:55:18.923Z,8.50
2024-01-31T19:57:47.358Z,8.50
2024-01-31T20:00:16.553Z,8.50
2024-01-31T20:02:47.024Z,8.50
2024-01-31T20:05:15.289Z,8.50
2024-01-31T20:07:43.436Z,8.50
2024-01-31T20:10:12.003Z,8.50
2024-01-31T20:12:41.341Z,8.70
2024-01-31T20:15:10.272Z,8.70
2024-01-31T20:17:38.689Z,8.70
2024-01-31T20:20:08.113Z,8.80
2024-01-31T20:22:38.341Z,8.80
2024-01-31T20:25:07.438Z,8.90
2024-01-31T20:27:35.599Z,9.00
2024-01-31T20:30:05.970Z,9.10
2024-01-31T20:32:34.091Z,9.20
2024-01-31T20:35:02.273Z,9.20
2024-01-31T20:37:30.581Z,9.40
2024-01-31T20:39:58.614Z,9.40
2024-01-31T20:42:26.693Z,9.50
2024-01-31T20:44:55.025Z,9.50
2024-01-31T20:47:24.425Z,9.60
2024-01-31T20:49:52.695Z,9.70
2024-01-31T20:52:21.001Z,9.70
2024-01-31T20:54:49.044Z,9.80
2024-01-31T20:57:17.118Z,10.10
2024-01-31T20:59:45.653Z,10.20
2024-01-31T21:02:13.742Z,10.30
2024-01-31T21:04:43.109Z,10.20
2024-01-31T21:07:11.493Z,10.10
2024-01-31T21:09:39.879Z,10.10
2024-01-31T21:12:09.193Z,10.10
2024-01-31T21:14:37.872Z,10.10
2024-01-31T21:17:06.202Z,10.10
2024-01-31T21:19:34.363Z,10.20
2024-01-31T21:22:04.249Z,10.20
2024-01-31T21:24:33.775Z,10.20
2024-01-31T21:27:02.169Z,10.20
2024-01-31T21:29:30.510Z,10.10
2024-01-31T21:31:58.540Z,10.10
2024-01-31T21:34:26.845Z,10.10
2024-01-31T21:36:55.519Z,10.20
2024-01-31T21:39:25.336Z,10.20
2024-01-31T21:41:53.415Z,10.20
2024-01-31T21:44:22.096Z,10.30
2024-01-31T21:46:50.228Z,10.40
2024-01-31T21:49:18.384Z,10.40
2024-01-31T21:51:46.737Z,10.40
2024-01-31T21:54:15.293Z,10.30
2024-01-31T21:56:44.733Z,10.30
2024-01-31T21:59:13.105Z,10.30
2024-01-31T22:01:41.805Z,10.30
2024-01-31T22:04:15.603Z,10.40
2024-01-31T22:06:47.964Z,10.30
2024-01-31T22:09:15.988Z,10.40
2024-01-31T22:11:45.791Z,10.30
2024-01-31T22:14:14.146Z,10.30
2024-01-31T22:16:42.229Z,10.30
2024-01-31T22:19:10.418Z,10.20
2024-01-31T22:21:42.951Z,10.20
2024-01-31T22:24:11.625Z,10.30
2024-01-31T22:26:41.391Z,10.30
2024-01-31T22:29:11.426Z,10.30
2024-01-31T22:31:43.970Z,10.30
2024-01-31T22:34:12.908Z,10.40
2024-01-31T22:36:41.081Z,10.30
2024-01-31T22:39:18.142Z,10.30
2024-01-31T22:41:47.293Z,10.30
2024-01-31T22:44:16.776Z,10.30
2024-01-31T22:46:45.319Z,10.30
2024-01-31T22:49:14.023Z,10.20
2024-01-31T22:51:42.252Z,10.10
2024-01-31T22:54:10.801Z,10.10
2024-01-31T22:56:38.957Z,10.10
2024-01-31T22:59:06.994Z,9.90
2024-01-31T23:01:36.885Z,9.80
2024-01-31T23:04:05.487Z,9.70
2024-01-31T23:06:34.011Z,9.70
2024-01-31T23:09:02.851Z,9.60
2024-01-31T23:11:32.462Z,9.60
2024-01-31T23:14:01.078Z,9.70
2024-01-31T23:16:30.075Z,9.60
2024-01-31T23:18:59.614Z,9.50
2024-01-31T23:21:28.345Z,9.50
2024-01-31T23:23:56.712Z,9.40
2024-01-31T23:26:26.675Z,9.30
2024-01-31T23:28:55.130Z,9.20
2024-01-31T23:31:23.283Z,9.10
2024-01-31T23:33:51.649Z,8.90
2024-01-31T23:36:21.632Z,8.80
2024-01-31T23:38:49.895Z,8.70
2024-01-31T23:41:18.029Z,8.70
2024-01-31T23:43:46.519Z,8.60
2024-01-31T23:46:21.628Z,8.60
2024-01-31T23:48:52.259Z,8.50
2024-01-31T23:51:22.065Z,8.40
2024-01-31T23:53:50.187Z,8.50
2024-01-31T23:56:23.062Z,8.80
2024-01-31T23:58:51.332Z,8.80
